EWG7PC LHBP-EDDL
Flight info
| Callsign | EWG7PC |
|---|---|
| Flight time | 1h 47m |
| Altitude | 38000 |
| Route | GILEP DCT ZOLKU DCT BEGLA DCT DEXIT DCT RODIS DCT TESDU DCT AMETU T852 TINSA T854 DOMUX DOMUX1A |
| Aircraft | A20N/M-SDE2E3FGHIRWXY/LB1 |
Departure
| Time | 2026-05-04 18:09 |
|---|---|
| Airport | Budapest Liszt Ferenc International Airport (LHBP) |
Arrival
| Time | 2026-05-04 19:56 |
|---|---|
| Airport | Düsseldorf Airport (EDDL) |
| Time | Latitude | Longitude | Altitude | Speed | Heading |
|---|---|---|---|---|---|
| 2026-05-04 17:42 | 47.43539 | 19.26435 | 475 ft | 0 kts | 222° |
| 2026-05-04 17:42 | 47.43512 | 19.26477 | 475 ft | 0 kts | 222° |
| 2026-05-04 18:00 | 47.43513 | 19.26477 | 475 ft | 0 kts | 222° |
| 2026-05-04 18:00 | 47.43519 | 19.26486 | 475 ft | 2 kts | 221° |
| 2026-05-04 18:00 | 47.43529 | 19.26503 | 475 ft | 2 kts | 245° |
| 2026-05-04 18:01 | 47.43533 | 19.26525 | 474 ft | 2 kts | 265° |
| 2026-05-04 18:01 | 47.43533 | 19.26546 | 475 ft | 2 kts | 285° |
| 2026-05-04 18:01 | 47.43527 | 19.26566 | 475 ft | 1 kts | 306° |
| 2026-05-04 18:02 | 47.43520 | 19.26577 | 475 ft | 0 kts | 313° |
| 2026-05-04 18:05 | 47.43524 | 19.26571 | 474 ft | 2 kts | 313° |
| 2026-05-04 18:05 | 47.43540 | 19.26545 | 474 ft | 4 kts | 313° |
| 2026-05-04 18:05 | 47.43569 | 19.26500 | 474 ft | 7 kts | 313° |
| 2026-05-04 18:06 | 47.43658 | 19.26357 | 474 ft | 10 kts | 313° |
| 2026-05-04 18:06 | 47.43719 | 19.26376 | 476 ft | 10 kts | 41° |
| 2026-05-04 18:06 | 47.43779 | 19.26418 | 476 ft | 10 kts | 343° |
| 2026-05-04 18:07 | 47.43830 | 19.26347 | 477 ft | 9 kts | 310° |
| 2026-05-04 18:07 | 47.43876 | 19.26271 | 478 ft | 10 kts | 313° |
| 2026-05-04 18:07 | 47.43934 | 19.26206 | 478 ft | 11 kts | 357° |
| 2026-05-04 18:07 | 47.44000 | 19.26271 | 478 ft | 12 kts | 41° |
| 2026-05-04 18:08 | 47.44055 | 19.26368 | 479 ft | 12 kts | 68° |
| 2026-05-04 18:08 | 47.44061 | 19.26499 | 479 ft | 13 kts | 99° |
| 2026-05-04 18:08 | 47.44002 | 19.26629 | 475 ft | 22 kts | 133° |
| 2026-05-04 18:08 | 47.43724 | 19.27077 | 464 ft | 98 kts | 132° |
| 2026-05-04 18:09 | 47.42314 | 19.29360 | 1015 ft | 172 kts | 135° |
| 2026-05-04 18:09 | 47.41027 | 19.32273 | 2569 ft | 177 kts | 117° |
| 2026-05-04 18:10 | 47.40463 | 19.33968 | 3061 ft | 192 kts | 120° |
| 2026-05-04 18:10 | 47.39810 | 19.35764 | 3558 ft | 209 kts | 121° |
| 2026-05-04 18:10 | 47.39064 | 19.37727 | 4078 ft | 228 kts | 121° |
| 2026-05-04 18:10 | 47.38130 | 19.39689 | 4628 ft | 244 kts | 141° |
| 2026-05-04 18:11 | 47.36606 | 19.40815 | 5195 ft | 257 kts | 171° |
| 2026-05-04 18:11 | 47.34810 | 19.40625 | 5914 ft | 267 kts | 201° |
| 2026-05-04 18:11 | 47.33302 | 19.39091 | 6791 ft | 272 kts | 230° |
| 2026-05-04 18:11 | 47.32338 | 19.36696 | 7709 ft | 277 kts | 241° |
| 2026-05-04 18:12 | 47.31556 | 19.34107 | 8599 ft | 282 kts | 256° |
| 2026-05-04 18:12 | 47.31631 | 19.31230 | 9467 ft | 289 kts | 285° |
| 2026-05-04 18:12 | 47.32326 | 19.28448 | 10387 ft | 293 kts | 290° |
| 2026-05-04 18:12 | 47.33128 | 19.25594 | 10964 ft | 308 kts | 291° |
| 2026-05-04 18:13 | 47.33941 | 19.22618 | 11524 ft | 322 kts | 290° |
| 2026-05-04 18:13 | 47.34759 | 19.19503 | 12343 ft | 327 kts | 289° |
| 2026-05-04 18:13 | 47.36343 | 19.13194 | 13992 ft | 334 kts | 289° |
| 2026-05-04 18:14 | 47.37141 | 19.09943 | 14808 ft | 338 kts | 289° |
| 2026-05-04 18:14 | 47.37928 | 19.06710 | 15590 ft | 341 kts | 289° |
| 2026-05-04 18:14 | 47.38737 | 19.03373 | 16375 ft | 344 kts | 289° |
| 2026-05-04 18:15 | 47.40356 | 18.96668 | 17720 ft | 350 kts | 289° |
| 2026-05-04 18:15 | 47.41995 | 18.89847 | 19052 ft | 356 kts | 289° |
| 2026-05-04 18:15 | 47.42820 | 18.86408 | 19750 ft | 359 kts | 289° |
| 2026-05-04 18:16 | 47.43644 | 18.82964 | 20422 ft | 362 kts | 289° |
| 2026-05-04 18:16 | 47.44485 | 18.79439 | 21077 ft | 365 kts | 289° |
| 2026-05-04 18:16 | 47.45326 | 18.75916 | 21710 ft | 368 kts | 289° |
| 2026-05-04 18:17 | 47.47031 | 18.68749 | 22925 ft | 374 kts | 289° |
| 2026-05-04 18:17 | 47.47899 | 18.65087 | 23524 ft | 377 kts | 289° |
| 2026-05-04 18:17 | 47.49631 | 18.57750 | 24034 ft | 379 kts | 290° |
| 2026-05-04 18:18 | 47.50497 | 18.54078 | 24035 ft | 378 kts | 290° |
| 2026-05-04 18:18 | 47.51351 | 18.50454 | 24031 ft | 378 kts | 290° |
| 2026-05-04 18:18 | 47.52222 | 18.46753 | 24124 ft | 382 kts | 290° |
| 2026-05-04 18:18 | 47.53104 | 18.43007 | 24624 ft | 385 kts | 289° |
| 2026-05-04 18:19 | 47.54847 | 18.35551 | 25841 ft | 386 kts | 290° |
| 2026-05-04 18:19 | 47.55729 | 18.31785 | 26320 ft | 389 kts | 289° |
| 2026-05-04 18:19 | 47.56615 | 18.27985 | 26815 ft | 392 kts | 289° |
| 2026-05-04 18:20 | 47.57498 | 18.24192 | 27260 ft | 395 kts | 289° |
| 2026-05-04 18:20 | 47.58395 | 18.20333 | 27718 ft | 397 kts | 289° |
| 2026-05-04 18:20 | 47.59295 | 18.16454 | 28173 ft | 400 kts | 289° |
| 2026-05-04 18:20 | 47.60205 | 18.12526 | 28623 ft | 402 kts | 289° |
| 2026-05-04 18:21 | 47.61105 | 18.08632 | 29042 ft | 404 kts | 289° |
| 2026-05-04 18:21 | 47.62014 | 18.04694 | 29444 ft | 407 kts | 289° |
| 2026-05-04 18:21 | 47.62932 | 18.00705 | 29854 ft | 409 kts | 289° |
| 2026-05-04 18:21 | 47.63857 | 17.96684 | 30251 ft | 411 kts | 289° |
| 2026-05-04 18:22 | 47.64779 | 17.92667 | 30630 ft | 413 kts | 289° |
| 2026-05-04 18:22 | 47.65705 | 17.88626 | 31010 ft | 415 kts | 289° |
| 2026-05-04 18:22 | 47.66628 | 17.84587 | 31365 ft | 417 kts | 289° |
| 2026-05-04 18:22 | 47.67565 | 17.80476 | 31784 ft | 417 kts | 290° |
| 2026-05-04 18:23 | 47.68483 | 17.76445 | 32261 ft | 415 kts | 290° |
| 2026-05-04 18:23 | 47.69408 | 17.72374 | 32736 ft | 413 kts | 290° |
| 2026-05-04 18:23 | 47.70315 | 17.68377 | 33166 ft | 412 kts | 290° |
| 2026-05-04 18:23 | 47.71236 | 17.64315 | 33523 ft | 411 kts | 290° |
| 2026-05-04 18:24 | 47.72142 | 17.60307 | 33773 ft | 410 kts | 290° |
| 2026-05-04 18:24 | 47.73045 | 17.56310 | 33965 ft | 410 kts | 290° |
| 2026-05-04 18:24 | 47.74850 | 17.48291 | 33978 ft | 410 kts | 290° |
| 2026-05-04 18:25 | 47.76653 | 17.40250 | 33981 ft | 409 kts | 290° |
| 2026-05-04 18:25 | 47.78450 | 17.32208 | 34151 ft | 413 kts | 289° |
| 2026-05-04 18:26 | 47.79347 | 17.28185 | 34565 ft | 410 kts | 289° |
| 2026-05-04 18:26 | 47.80239 | 17.24176 | 34990 ft | 407 kts | 289° |
| 2026-05-04 18:26 | 47.81130 | 17.20160 | 35338 ft | 406 kts | 289° |
| 2026-05-04 18:26 | 47.82001 | 17.16224 | 35642 ft | 406 kts | 289° |
| 2026-05-04 18:27 | 47.82918 | 17.12228 | 35949 ft | 405 kts | 291° |
| 2026-05-04 18:27 | 47.83955 | 17.08359 | 36261 ft | 404 kts | 293° |
| 2026-05-04 18:27 | 47.85070 | 17.04512 | 36516 ft | 404 kts | 294° |
| 2026-05-04 18:27 | 47.86195 | 17.00670 | 36715 ft | 405 kts | 294° |
| 2026-05-04 18:28 | 47.87319 | 16.96831 | 36894 ft | 407 kts | 294° |
| 2026-05-04 18:28 | 47.88443 | 16.92987 | 37065 ft | 408 kts | 294° |
| 2026-05-04 18:28 | 47.89581 | 16.89082 | 37262 ft | 409 kts | 293° |
| 2026-05-04 18:28 | 47.90710 | 16.85203 | 37449 ft | 410 kts | 293° |
| 2026-05-04 18:29 | 47.91842 | 16.81307 | 37627 ft | 411 kts | 293° |
| 2026-05-04 18:29 | 47.92984 | 16.77368 | 37803 ft | 411 kts | 293° |
| 2026-05-04 18:29 | 47.94120 | 16.73440 | 37924 ft | 413 kts | 293° |
| 2026-05-04 18:29 | 47.95253 | 16.69519 | 37927 ft | 414 kts | 293° |
| 2026-05-04 18:30 | 47.98665 | 16.57668 | 37926 ft | 414 kts | 293° |
| 2026-05-04 18:31 | 48.00929 | 16.49773 | 37925 ft | 414 kts | 292° |
| 2026-05-04 18:31 | 48.03179 | 16.41901 | 37925 ft | 414 kts | 292° |
| 2026-05-04 18:32 | 48.05431 | 16.33992 | 37925 ft | 414 kts | 292° |
| 2026-05-04 18:32 | 48.07677 | 16.26082 | 37926 ft | 414 kts | 292° |
| 2026-05-04 18:33 | 48.09915 | 16.18180 | 37926 ft | 414 kts | 292° |
| 2026-05-04 18:33 | 48.12159 | 16.10225 | 37925 ft | 414 kts | 292° |
| 2026-05-04 18:34 | 48.14384 | 16.02310 | 37925 ft | 414 kts | 292° |
| 2026-05-04 18:34 | 48.16609 | 15.94370 | 37925 ft | 414 kts | 292° |
| 2026-05-04 18:35 | 48.18834 | 15.86404 | 37926 ft | 414 kts | 292° |
| 2026-05-04 18:35 | 48.21056 | 15.78428 | 37926 ft | 414 kts | 292° |
| 2026-05-04 18:36 | 48.23268 | 15.70456 | 37926 ft | 414 kts | 292° |
| 2026-05-04 18:36 | 48.25461 | 15.62523 | 37926 ft | 414 kts | 292° |
| 2026-05-04 18:37 | 48.27663 | 15.54533 | 37926 ft | 414 kts | 291° |
| 2026-05-04 18:37 | 48.29855 | 15.46557 | 37926 ft | 414 kts | 291° |
| 2026-05-04 18:38 | 48.32040 | 15.38574 | 37926 ft | 413 kts | 291° |
| 2026-05-04 18:38 | 48.34215 | 15.30599 | 37926 ft | 413 kts | 291° |
| 2026-05-04 18:39 | 48.36395 | 15.22585 | 37925 ft | 413 kts | 291° |
| 2026-05-04 18:39 | 48.38558 | 15.14600 | 37925 ft | 413 kts | 291° |
| 2026-05-04 18:40 | 48.40731 | 15.06556 | 37924 ft | 414 kts | 290° |
| 2026-05-04 18:40 | 48.42882 | 14.98563 | 37917 ft | 414 kts | 290° |
| 2026-05-04 18:41 | 48.45029 | 14.90559 | 37905 ft | 414 kts | 290° |
| 2026-05-04 18:41 | 48.47189 | 14.82480 | 37889 ft | 413 kts | 290° |
| 2026-05-04 18:42 | 48.49320 | 14.74475 | 37879 ft | 413 kts | 290° |
| 2026-05-04 18:42 | 48.51459 | 14.66415 | 37875 ft | 414 kts | 290° |
| 2026-05-04 18:43 | 48.53591 | 14.58356 | 37874 ft | 414 kts | 290° |
| 2026-05-04 18:43 | 48.55717 | 14.50290 | 37877 ft | 414 kts | 290° |
| 2026-05-04 18:44 | 48.57843 | 14.42198 | 37880 ft | 415 kts | 290° |
| 2026-05-04 18:44 | 48.59968 | 14.34080 | 37884 ft | 415 kts | 290° |
| 2026-05-04 18:45 | 48.62070 | 14.26022 | 37888 ft | 415 kts | 290° |
| 2026-05-04 18:45 | 48.64179 | 14.17911 | 37891 ft | 414 kts | 290° |
| 2026-05-04 18:46 | 48.66284 | 14.09786 | 37894 ft | 414 kts | 290° |
| 2026-05-04 18:46 | 48.68360 | 14.01744 | 37895 ft | 414 kts | 290° |
| 2026-05-04 18:47 | 48.70459 | 13.93595 | 37895 ft | 414 kts | 289° |
| 2026-05-04 18:47 | 48.72546 | 13.85447 | 37895 ft | 414 kts | 289° |
| 2026-05-04 18:48 | 48.74623 | 13.77326 | 37895 ft | 415 kts | 290° |
| 2026-05-04 18:48 | 48.77039 | 13.69398 | 37895 ft | 416 kts | 296° |
| 2026-05-04 18:49 | 48.79995 | 13.61839 | 37896 ft | 417 kts | 300° |
| 2026-05-04 18:49 | 48.83091 | 13.54409 | 37895 ft | 417 kts | 300° |
| 2026-05-04 18:50 | 48.86180 | 13.46981 | 37895 ft | 417 kts | 300° |
| 2026-05-04 18:50 | 48.89278 | 13.39499 | 37895 ft | 417 kts | 300° |
| 2026-05-04 18:51 | 48.92310 | 13.32153 | 37896 ft | 417 kts | 299° |
| 2026-05-04 18:51 | 48.95340 | 13.24793 | 37896 ft | 417 kts | 299° |
| 2026-05-04 18:52 | 48.98398 | 13.17340 | 37896 ft | 417 kts | 299° |
| 2026-05-04 18:52 | 49.01442 | 13.09900 | 37898 ft | 417 kts | 299° |
| 2026-05-04 18:53 | 49.04489 | 13.02431 | 37902 ft | 417 kts | 299° |
| 2026-05-04 18:53 | 49.07541 | 12.94933 | 37908 ft | 417 kts | 299° |
| 2026-05-04 18:54 | 49.10531 | 12.87565 | 37913 ft | 417 kts | 298° |
| 2026-05-04 18:54 | 49.13578 | 12.80034 | 37918 ft | 417 kts | 298° |
| 2026-05-04 18:55 | 49.16607 | 12.72526 | 37921 ft | 417 kts | 298° |
| 2026-05-04 18:55 | 49.21164 | 12.61191 | 37928 ft | 417 kts | 298° |
| 2026-05-04 18:56 | 49.24191 | 12.53636 | 37933 ft | 417 kts | 298° |
| 2026-05-04 18:56 | 49.27216 | 12.46065 | 37939 ft | 418 kts | 298° |
| 2026-05-04 18:57 | 49.30236 | 12.38485 | 37944 ft | 417 kts | 298° |
| 2026-05-04 18:57 | 49.33232 | 12.30940 | 37947 ft | 417 kts | 298° |
| 2026-05-04 18:58 | 49.36232 | 12.23367 | 37948 ft | 417 kts | 298° |
| 2026-05-04 18:58 | 49.39224 | 12.15793 | 37948 ft | 417 kts | 298° |
| 2026-05-04 18:59 | 49.42219 | 12.08192 | 37948 ft | 417 kts | 298° |
| 2026-05-04 18:59 | 49.45204 | 12.00586 | 37948 ft | 417 kts | 298° |
| 2026-05-04 19:00 | 49.48345 | 11.93041 | 37948 ft | 419 kts | 302° |
| 2026-05-04 19:00 | 49.51791 | 11.85850 | 37945 ft | 420 kts | 303° |
| 2026-05-04 19:01 | 49.55278 | 11.78649 | 37940 ft | 420 kts | 303° |
| 2026-05-04 19:01 | 49.58765 | 11.71420 | 37933 ft | 419 kts | 303° |
| 2026-05-04 19:02 | 49.62233 | 11.64203 | 37929 ft | 420 kts | 303° |
| 2026-05-04 19:02 | 49.65677 | 11.57014 | 37927 ft | 420 kts | 303° |
| 2026-05-04 19:03 | 49.69151 | 11.49742 | 37926 ft | 420 kts | 303° |
| 2026-05-04 19:03 | 49.72616 | 11.42469 | 37925 ft | 420 kts | 303° |
| 2026-05-04 19:04 | 49.76067 | 11.35206 | 37925 ft | 421 kts | 303° |
| 2026-05-04 19:04 | 49.79478 | 11.28007 | 37926 ft | 420 kts | 302° |
| 2026-05-04 19:05 | 49.82916 | 11.20733 | 37928 ft | 421 kts | 302° |
| 2026-05-04 19:05 | 49.86349 | 11.13448 | 37931 ft | 421 kts | 302° |
| 2026-05-04 19:06 | 49.89780 | 11.06145 | 37937 ft | 421 kts | 302° |
| 2026-05-04 19:06 | 49.93185 | 10.98879 | 37942 ft | 421 kts | 302° |
| 2026-05-04 19:07 | 49.96629 | 10.91512 | 37947 ft | 421 kts | 302° |
| 2026-05-04 19:07 | 50.00055 | 10.84161 | 37950 ft | 421 kts | 302° |
| 2026-05-04 19:08 | 50.03453 | 10.76856 | 37954 ft | 420 kts | 302° |
| 2026-05-04 19:08 | 50.06873 | 10.69474 | 37955 ft | 420 kts | 302° |
| 2026-05-04 19:09 | 50.10219 | 10.62234 | 37957 ft | 420 kts | 301° |
| 2026-05-04 19:09 | 50.13541 | 10.55030 | 37957 ft | 420 kts | 301° |
| 2026-05-04 19:10 | 50.16941 | 10.47633 | 37958 ft | 420 kts | 301° |
| 2026-05-04 19:10 | 50.20324 | 10.40251 | 37958 ft | 421 kts | 301° |
| 2026-05-04 19:11 | 50.23660 | 10.32856 | 37958 ft | 420 kts | 300° |
| 2026-05-04 19:11 | 50.26954 | 10.25484 | 37958 ft | 420 kts | 300° |
| 2026-05-04 19:12 | 50.31983 | 10.14204 | 37909 ft | 421 kts | 300° |
| 2026-05-04 19:12 | 50.33658 | 10.10440 | 37655 ft | 421 kts | 300° |
| 2026-05-04 19:13 | 50.35330 | 10.06678 | 37406 ft | 420 kts | 300° |
| 2026-05-04 19:13 | 50.36998 | 10.02921 | 37157 ft | 420 kts | 300° |
| 2026-05-04 19:13 | 50.38645 | 9.99202 | 36909 ft | 420 kts | 300° |
| 2026-05-04 19:13 | 50.40317 | 9.95425 | 36659 ft | 420 kts | 300° |
| 2026-05-04 19:14 | 50.41976 | 9.91670 | 36410 ft | 419 kts | 300° |
| 2026-05-04 19:14 | 50.43626 | 9.87930 | 36162 ft | 419 kts | 300° |
| 2026-05-04 19:14 | 50.45287 | 9.84159 | 35911 ft | 419 kts | 300° |
| 2026-05-04 19:14 | 50.46929 | 9.80426 | 35665 ft | 419 kts | 300° |
| 2026-05-04 19:15 | 50.48587 | 9.76653 | 35414 ft | 419 kts | 300° |
| 2026-05-04 19:15 | 50.50241 | 9.72882 | 35164 ft | 419 kts | 300° |
| 2026-05-04 19:15 | 50.51897 | 9.69105 | 34914 ft | 419 kts | 300° |
| 2026-05-04 19:15 | 50.53549 | 9.65330 | 34665 ft | 419 kts | 300° |
| 2026-05-04 19:16 | 50.55185 | 9.61583 | 34418 ft | 420 kts | 300° |
| 2026-05-04 19:16 | 50.56850 | 9.57766 | 34166 ft | 420 kts | 300° |
| 2026-05-04 19:16 | 50.58479 | 9.54030 | 33991 ft | 420 kts | 300° |
| 2026-05-04 19:17 | 50.61785 | 9.46420 | 33981 ft | 420 kts | 299° |
| 2026-05-04 19:17 | 50.65087 | 9.38800 | 33980 ft | 420 kts | 299° |
| 2026-05-04 19:18 | 50.68366 | 9.31216 | 33928 ft | 421 kts | 298° |
| 2026-05-04 19:18 | 50.70014 | 9.27388 | 33464 ft | 423 kts | 298° |
| 2026-05-04 19:18 | 50.71671 | 9.23532 | 32626 ft | 429 kts | 298° |
| 2026-05-04 19:18 | 50.73342 | 9.19636 | 31729 ft | 433 kts | 299° |
| 2026-05-04 19:19 | 50.75025 | 9.15715 | 31050 ft | 432 kts | 299° |
| 2026-05-04 19:19 | 50.76699 | 9.11816 | 30442 ft | 430 kts | 300° |
| 2026-05-04 19:19 | 50.78366 | 9.07930 | 29857 ft | 428 kts | 300° |
| 2026-05-04 19:19 | 50.80016 | 9.04069 | 29283 ft | 424 kts | 300° |
| 2026-05-04 19:20 | 50.81646 | 9.00254 | 28876 ft | 416 kts | 300° |
| 2026-05-04 19:20 | 50.83306 | 8.96473 | 28544 ft | 410 kts | 302° |
| 2026-05-04 19:20 | 50.85020 | 8.92926 | 28215 ft | 410 kts | 304° |
| 2026-05-04 19:20 | 50.86798 | 8.89369 | 27777 ft | 409 kts | 304° |
| 2026-05-04 19:21 | 50.88540 | 8.85905 | 27330 ft | 406 kts | 304° |
| 2026-05-04 19:21 | 50.90293 | 8.82415 | 26878 ft | 404 kts | 304° |
| 2026-05-04 19:21 | 50.92030 | 8.78946 | 26553 ft | 402 kts | 304° |
| 2026-05-04 19:21 | 50.93767 | 8.75470 | 26302 ft | 402 kts | 303° |
| 2026-05-04 19:22 | 50.95355 | 8.71893 | 26060 ft | 398 kts | 299° |
| 2026-05-04 19:22 | 50.96829 | 8.68192 | 25988 ft | 398 kts | 298° |
| 2026-05-04 19:22 | 50.98290 | 8.64467 | 25985 ft | 399 kts | 298° |
| 2026-05-04 19:22 | 50.99766 | 8.60722 | 25983 ft | 399 kts | 298° |
| 2026-05-04 19:23 | 51.01241 | 8.57011 | 25977 ft | 388 kts | 298° |
| 2026-05-04 19:23 | 51.02655 | 8.53475 | 25974 ft | 372 kts | 298° |
| 2026-05-04 19:23 | 51.04008 | 8.50094 | 25978 ft | 366 kts | 298° |
| 2026-05-04 19:23 | 51.05372 | 8.46674 | 25981 ft | 366 kts | 298° |
| 2026-05-04 19:24 | 51.06743 | 8.43239 | 25981 ft | 365 kts | 298° |
| 2026-05-04 19:24 | 51.08105 | 8.39820 | 25982 ft | 365 kts | 298° |
| 2026-05-04 19:24 | 51.09460 | 8.36419 | 25981 ft | 366 kts | 298° |
| 2026-05-04 19:24 | 51.10797 | 8.33059 | 25982 ft | 366 kts | 297° |
| 2026-05-04 19:25 | 51.12104 | 8.29774 | 25982 ft | 366 kts | 297° |
| 2026-05-04 19:25 | 51.13466 | 8.26345 | 25982 ft | 365 kts | 297° |
| 2026-05-04 19:25 | 51.14823 | 8.22924 | 25982 ft | 365 kts | 297° |
| 2026-05-04 19:25 | 51.16192 | 8.19473 | 25983 ft | 365 kts | 297° |
| 2026-05-04 19:26 | 51.17547 | 8.16050 | 25979 ft | 365 kts | 297° |
| 2026-05-04 19:26 | 51.18891 | 8.12654 | 25784 ft | 360 kts | 297° |
| 2026-05-04 19:26 | 51.20223 | 8.09282 | 25307 ft | 360 kts | 297° |
| 2026-05-04 19:26 | 51.21550 | 8.05912 | 24800 ft | 359 kts | 297° |
| 2026-05-04 19:27 | 51.22873 | 8.02551 | 24448 ft | 354 kts | 297° |
| 2026-05-04 19:27 | 51.24158 | 7.99293 | 24277 ft | 344 kts | 297° |
| 2026-05-04 19:27 | 51.25406 | 7.96117 | 24100 ft | 335 kts | 297° |
| 2026-05-04 19:27 | 51.26636 | 7.92988 | 23925 ft | 325 kts | 297° |
| 2026-05-04 19:28 | 51.27805 | 7.90011 | 23744 ft | 317 kts | 297° |
| 2026-05-04 19:28 | 51.28972 | 7.87028 | 23443 ft | 313 kts | 297° |
| 2026-05-04 19:28 | 51.30115 | 7.84096 | 23076 ft | 311 kts | 297° |
| 2026-05-04 19:28 | 51.31254 | 7.81174 | 22710 ft | 309 kts | 297° |
| 2026-05-04 19:29 | 51.32385 | 7.78271 | 22349 ft | 308 kts | 297° |
| 2026-05-04 19:29 | 51.33593 | 7.75455 | 21974 ft | 310 kts | 310° |
| 2026-05-04 19:29 | 51.35343 | 7.73421 | 21568 ft | 317 kts | 333° |
| 2026-05-04 19:29 | 51.37422 | 7.72227 | 21249 ft | 316 kts | 341° |
| 2026-05-04 19:30 | 51.39519 | 7.71272 | 20904 ft | 314 kts | 342° |
| 2026-05-04 19:30 | 51.41617 | 7.70360 | 20553 ft | 312 kts | 342° |
| 2026-05-04 19:30 | 51.43708 | 7.69455 | 20207 ft | 310 kts | 342° |
| 2026-05-04 19:30 | 51.45775 | 7.68558 | 19968 ft | 306 kts | 342° |
| 2026-05-04 19:31 | 51.47839 | 7.67657 | 19961 ft | 308 kts | 342° |
| 2026-05-04 19:31 | 51.49904 | 7.66753 | 19959 ft | 308 kts | 342° |
| 2026-05-04 19:31 | 51.51960 | 7.65852 | 19958 ft | 308 kts | 342° |
| 2026-05-04 19:31 | 51.54009 | 7.64954 | 19954 ft | 307 kts | 342° |
| 2026-05-04 19:32 | 51.56083 | 7.64045 | 19744 ft | 304 kts | 342° |
| 2026-05-04 19:32 | 51.58119 | 7.63152 | 19344 ft | 304 kts | 342° |
| 2026-05-04 19:32 | 51.60122 | 7.62267 | 18981 ft | 303 kts | 342° |
| 2026-05-04 19:32 | 51.62106 | 7.61110 | 18604 ft | 298 kts | 325° |
| 2026-05-04 19:33 | 51.63586 | 7.58895 | 18238 ft | 290 kts | 300° |
| 2026-05-04 19:33 | 51.64369 | 7.55951 | 17894 ft | 283 kts | 284° |
| 2026-05-04 19:33 | 51.64886 | 7.52951 | 17546 ft | 281 kts | 282° |
| 2026-05-04 19:33 | 51.65387 | 7.49912 | 17184 ft | 280 kts | 283° |
| 2026-05-04 19:34 | 51.65892 | 7.46885 | 16832 ft | 279 kts | 283° |
| 2026-05-04 19:34 | 51.66408 | 7.43857 | 16485 ft | 277 kts | 283° |
| 2026-05-04 19:34 | 51.66922 | 7.40910 | 16144 ft | 276 kts | 284° |
| 2026-05-04 19:34 | 51.67459 | 7.37952 | 15796 ft | 274 kts | 284° |
| 2026-05-04 19:35 | 51.67992 | 7.35010 | 15450 ft | 273 kts | 284° |
| 2026-05-04 19:35 | 51.68516 | 7.32080 | 15108 ft | 272 kts | 283° |
| 2026-05-04 19:35 | 51.69031 | 7.29173 | 14773 ft | 270 kts | 283° |
| 2026-05-04 19:35 | 51.69541 | 7.26278 | 14438 ft | 268 kts | 283° |
| 2026-05-04 19:36 | 51.70050 | 7.23378 | 14185 ft | 265 kts | 283° |
| 2026-05-04 19:36 | 51.70301 | 7.20457 | 13974 ft | 262 kts | 266° |
| 2026-05-04 19:36 | 51.70020 | 7.17573 | 13633 ft | 260 kts | 251° |
| 2026-05-04 19:36 | 51.69387 | 7.14874 | 13274 ft | 258 kts | 243° |
| 2026-05-04 19:37 | 51.68523 | 7.12368 | 12937 ft | 256 kts | 235° |
| 2026-05-04 19:37 | 51.67472 | 7.10040 | 12604 ft | 255 kts | 232° |
| 2026-05-04 19:37 | 51.66398 | 7.07805 | 12264 ft | 254 kts | 231° |
| 2026-05-04 19:37 | 51.65317 | 7.05550 | 11933 ft | 253 kts | 232° |
| 2026-05-04 19:38 | 51.64254 | 7.03314 | 11609 ft | 251 kts | 232° |
| 2026-05-04 19:38 | 51.63192 | 7.01068 | 11284 ft | 250 kts | 232° |
| 2026-05-04 19:38 | 51.62141 | 6.98838 | 10959 ft | 249 kts | 232° |
| 2026-05-04 19:38 | 51.61108 | 6.96645 | 10640 ft | 247 kts | 232° |
| 2026-05-04 19:39 | 51.60064 | 6.94435 | 10317 ft | 246 kts | 232° |
| 2026-05-04 19:39 | 51.59050 | 6.92286 | 10012 ft | 244 kts | 232° |
| 2026-05-04 19:39 | 51.58032 | 6.90125 | 9697 ft | 243 kts | 232° |
| 2026-05-04 19:39 | 51.57013 | 6.87957 | 9374 ft | 242 kts | 232° |
| 2026-05-04 19:40 | 51.56005 | 6.85811 | 9054 ft | 241 kts | 232° |
| 2026-05-04 19:40 | 51.54992 | 6.83650 | 8732 ft | 240 kts | 232° |
| 2026-05-04 19:40 | 51.53995 | 6.81521 | 8414 ft | 238 kts | 232° |
| 2026-05-04 19:40 | 51.52999 | 6.79401 | 8088 ft | 238 kts | 230° |
| 2026-05-04 19:41 | 51.51769 | 6.77734 | 7953 ft | 234 kts | 202° |
| 2026-05-04 19:41 | 51.50161 | 6.77357 | 7957 ft | 238 kts | 172° |
| 2026-05-04 19:41 | 51.48593 | 6.78221 | 7967 ft | 240 kts | 155° |
| 2026-05-04 19:41 | 51.47122 | 6.79461 | 7964 ft | 240 kts | 153° |
| 2026-05-04 19:42 | 51.45676 | 6.80768 | 7962 ft | 240 kts | 152° |
| 2026-05-04 19:42 | 51.44230 | 6.82090 | 7961 ft | 240 kts | 152° |
| 2026-05-04 19:42 | 51.42776 | 6.83424 | 7960 ft | 240 kts | 152° |
| 2026-05-04 19:42 | 51.41317 | 6.84764 | 7961 ft | 240 kts | 152° |
| 2026-05-04 19:43 | 51.39883 | 6.86085 | 7960 ft | 240 kts | 152° |
| 2026-05-04 19:43 | 51.38435 | 6.87423 | 7960 ft | 240 kts | 152° |
| 2026-05-04 19:43 | 51.36990 | 6.88757 | 7960 ft | 240 kts | 152° |
| 2026-05-04 19:43 | 51.35542 | 6.90092 | 7960 ft | 240 kts | 152° |
| 2026-05-04 19:44 | 51.34092 | 6.91430 | 7960 ft | 240 kts | 152° |
| 2026-05-04 19:44 | 51.32640 | 6.92767 | 7960 ft | 240 kts | 152° |
| 2026-05-04 19:44 | 51.31210 | 6.94086 | 7905 ft | 237 kts | 152° |
| 2026-05-04 19:44 | 51.29826 | 6.95472 | 7569 ft | 239 kts | 140° |
| 2026-05-04 19:45 | 51.28921 | 6.97710 | 7154 ft | 246 kts | 103° |
| 2026-05-04 19:45 | 51.29084 | 7.00429 | 6814 ft | 249 kts | 65° |
| 2026-05-04 19:45 | 51.29979 | 7.02740 | 6547 ft | 247 kts | 54° |
| 2026-05-04 19:45 | 51.31022 | 7.04915 | 6205 ft | 247 kts | 52° |
| 2026-05-04 19:46 | 51.32108 | 7.07096 | 5871 ft | 247 kts | 52° |
| 2026-05-04 19:46 | 51.33170 | 7.09221 | 5553 ft | 246 kts | 52° |
| 2026-05-04 19:46 | 51.34216 | 7.11322 | 5273 ft | 244 kts | 52° |
| 2026-05-04 19:46 | 51.35270 | 7.13444 | 4982 ft | 242 kts | 52° |
| 2026-05-04 19:47 | 51.36314 | 7.15557 | 4691 ft | 240 kts | 52° |
| 2026-05-04 19:47 | 51.37347 | 7.17656 | 4392 ft | 239 kts | 52° |
| 2026-05-04 19:47 | 51.38359 | 7.19721 | 4107 ft | 237 kts | 52° |
| 2026-05-04 19:47 | 51.39376 | 7.21805 | 3995 ft | 235 kts | 52° |
| 2026-05-04 19:48 | 51.40382 | 7.23864 | 3992 ft | 237 kts | 50° |
| 2026-05-04 19:48 | 51.41656 | 7.25504 | 3978 ft | 236 kts | 21° |
| 2026-05-04 19:48 | 51.43261 | 7.25851 | 3983 ft | 235 kts | 348° |
| 2026-05-04 19:48 | 51.44768 | 7.24874 | 3994 ft | 233 kts | 327° |
| 2026-05-04 19:49 | 51.46097 | 7.23403 | 3989 ft | 232 kts | 316° |
| 2026-05-04 19:49 | 51.46979 | 7.21303 | 3981 ft | 229 kts | 284° |
| 2026-05-04 19:49 | 51.47120 | 7.18783 | 3993 ft | 228 kts | 266° |
| 2026-05-04 19:49 | 51.46962 | 7.16253 | 3989 ft | 228 kts | 257° |
| 2026-05-04 19:50 | 51.46493 | 7.13812 | 3989 ft | 227 kts | 245° |
| 2026-05-04 19:50 | 51.45720 | 7.11605 | 3990 ft | 228 kts | 236° |
| 2026-05-04 19:50 | 51.44836 | 7.09492 | 3990 ft | 228 kts | 234° |
| 2026-05-04 19:50 | 51.43906 | 7.07409 | 3989 ft | 228 kts | 233° |
| 2026-05-04 19:51 | 51.42976 | 7.05410 | 3983 ft | 219 kts | 232° |
| 2026-05-04 19:51 | 51.42081 | 7.03530 | 3970 ft | 205 kts | 232° |
| 2026-05-04 19:51 | 51.41234 | 7.01766 | 3831 ft | 198 kts | 232° |
| 2026-05-04 19:51 | 51.40418 | 7.00071 | 3662 ft | 188 kts | 232° |
| 2026-05-04 19:52 | 51.39623 | 6.98418 | 3381 ft | 185 kts | 232° |
| 2026-05-04 19:52 | 51.38850 | 6.96812 | 3112 ft | 182 kts | 232° |
| 2026-05-04 19:52 | 51.38086 | 6.95220 | 2851 ft | 178 kts | 232° |
| 2026-05-04 19:52 | 51.37337 | 6.93656 | 2602 ft | 174 kts | 232° |
| 2026-05-04 19:53 | 51.36607 | 6.92131 | 2370 ft | 173 kts | 232° |
| 2026-05-04 19:53 | 51.35867 | 6.90585 | 2144 ft | 173 kts | 232° |
| 2026-05-04 19:53 | 51.35143 | 6.89070 | 1923 ft | 172 kts | 232° |
| 2026-05-04 19:53 | 51.34423 | 6.87560 | 1737 ft | 169 kts | 231° |
| 2026-05-04 19:54 | 51.33752 | 6.86152 | 1509 ft | 153 kts | 231° |
| 2026-05-04 19:54 | 51.33139 | 6.84866 | 1280 ft | 139 kts | 231° |
| 2026-05-04 19:54 | 51.32573 | 6.83681 | 1083 ft | 129 kts | 231° |
| 2026-05-04 19:54 | 51.32034 | 6.82555 | 930 ft | 128 kts | 231° |
| 2026-05-04 19:55 | 51.31491 | 6.81419 | 774 ft | 129 kts | 230° |
| 2026-05-04 19:55 | 51.30946 | 6.80284 | 595 ft | 128 kts | 231° |
| 2026-05-04 19:55 | 51.30410 | 6.79152 | 416 ft | 127 kts | 231° |
| 2026-05-04 19:55 | 51.29887 | 6.78053 | 255 ft | 124 kts | 230° |
| 2026-05-04 19:56 | 51.29362 | 6.76957 | 154 ft | 112 kts | 232° |
| 2026-05-04 19:56 | 51.28981 | 6.76155 | 154 ft | 76 kts | 232° |
| 2026-05-04 19:56 | 51.28693 | 6.75553 | 154 ft | 62 kts | 232° |
| 2026-05-04 19:56 | 51.28462 | 6.75066 | 154 ft | 35 kts | 232° |
| 2026-05-04 19:57 | 51.28294 | 6.74992 | 154 ft | 25 kts | 155° |
| 2026-05-04 19:57 | 51.28156 | 6.75101 | 154 ft | 10 kts | 153° |
| 2026-05-04 19:57 | 51.28103 | 6.75145 | 154 ft | 6 kts | 153° |
| 2026-05-04 19:57 | 51.28059 | 6.75181 | 154 ft | 7 kts | 153° |
| 2026-05-04 19:58 | 51.28007 | 6.75223 | 154 ft | 9 kts | 153° |
| 2026-05-04 19:58 | 51.27945 | 6.75272 | 154 ft | 10 kts | 154° |
| 2026-05-04 19:58 | 51.27876 | 6.75327 | 154 ft | 11 kts | 153° |
| 2026-05-04 19:58 | 51.27862 | 6.75338 | 154 ft | 0 kts | 153° |
| 2026-05-04 20:00 | 51.27861 | 6.75340 | 154 ft | 0 kts | 153° |
| 2026-05-04 20:00 | 51.27851 | 6.75347 | 154 ft | 2 kts | 153° |
| 2026-05-04 20:01 | 51.27837 | 6.75372 | 154 ft | 3 kts | 113° |
| 2026-05-04 20:01 | 51.27840 | 6.75415 | 154 ft | 5 kts | 63° |
| 2026-05-04 20:01 | 51.27874 | 6.75488 | 154 ft | 10 kts | 52° |
| 2026-05-04 20:01 | 51.27919 | 6.75581 | 154 ft | 10 kts | 53° |
| 2026-05-04 20:02 | 51.27965 | 6.75678 | 154 ft | 11 kts | 53° |
| 2026-05-04 20:02 | 51.28005 | 6.75784 | 154 ft | 10 kts | 95° |
| 2026-05-04 20:02 | 51.27967 | 6.75826 | 154 ft | 6 kts | 172° |
| 2026-05-04 20:02 | 51.27925 | 6.75826 | 154 ft | 5 kts | 181° |
| 2026-05-04 20:03 | 51.27908 | 6.75864 | 154 ft | 4 kts | 94° |
| 2026-05-04 20:03 | 51.27910 | 6.75917 | 154 ft | 4 kts | 84° |
| 2026-05-04 20:03 | 51.27910 | 6.75929 | 154 ft | 0 kts | 93° |